sensor_id;sensor_type;location;lat;lon;timestamp;pressure;altitude;pressure_sealevel;temperature;humidity
18900;BME280;9582;52.018;6.306;2022-10-26T00:00:27;101381.88;;;10.47;100.00
18900;BME280;9582;52.018;6.306;2022-10-26T00:02:56;101380.16;;;10.46;100.00
18900;BME280;9582;52.018;6.306;2022-10-26T00:05:22;101375.78;;;10.46;100.00
18900;BME280;9582;52.018;6.306;2022-10-26T00:07:49;101379.28;;;10.45;100.00
18900;BME280;9582;52.018;6.306;2022-10-26T00:10:16;101368.81;;;10.47;100.00
18900;BME280;9582;52.018;6.306;2022-10-26T00:12:47;101371.31;;;10.50;100.00
18900;BME280;9582;52.018;6.306;2022-10-26T00:15:15;101370.59;;;10.44;100.00
18900;BME280;9582;52.018;6.306;2022-10-26T00:17:41;101365.13;;;10.52;100.00
18900;BME280;9582;52.018;6.306;2022-10-26T00:20:10;101363.22;;;10.56;100.00
18900;BME280;9582;52.018;6.306;2022-10-26T00:22:36;101365.97;;;10.53;100.00
18900;BME280;9582;52.018;6.306;2022-10-26T00:25:03;101369.59;;;10.49;100.00
18900;BME280;9582;52.018;6.306;2022-10-26T00:27:31;101368.44;;;10.56;100.00
18900;BME280;9582;52.018;6.306;2022-10-26T00:29:58;101361.56;;;10.53;100.00
18900;BME280;9582;52.018;6.306;2022-10-26T00:32:25;101354.44;;;10.58;100.00
18900;BME280;9582;52.018;6.306;2022-10-26T00:34:52;101356.91;;;10.61;100.00
18900;BME280;9582;52.018;6.306;2022-10-26T00:37:20;101356.13;;;10.59;100.00
18900;BME280;9582;52.018;6.306;2022-10-26T00:39:46;101354.19;;;10.64;100.00
18900;BME280;9582;52.018;6.306;2022-10-26T00:42:16;101343.59;;;10.69;100.00
18900;BME280;9582;52.018;6.306;2022-10-26T00:44:58;101345.78;;;10.79;100.00
18900;BME280;9582;52.018;6.306;2022-10-26T00:47:39;101340.53;;;10.81;100.00
18900;BME280;9582;52.018;6.306;2022-10-26T00:50:09;101337.84;;;10.82;100.00
18900;BME280;9582;52.018;6.306;2022-10-26T00:52:39;101338.69;;;10.83;100.00
18900;BME280;9582;52.018;6.306;2022-10-26T00:55:07;101338.84;;;10.78;100.00
18900;BME280;9582;52.018;6.306;2022-10-26T00:57:35;101347.28;;;10.63;100.00
18900;BME280;9582;52.018;6.306;2022-10-26T01:00:04;101338.69;;;10.60;100.00
18900;BME280;9582;52.018;6.306;2022-10-26T01:02:30;101333.72;;;10.75;100.00
18900;BME280;9582;52.018;6.306;2022-10-26T01:04:57;101330.88;;;10.81;100.00
18900;BME280;9582;52.018;6.306;2022-10-26T01:07:24;101331.84;;;10.79;100.00
18900;BME280;9582;52.018;6.306;2022-10-26T01:09:53;101331.63;;;10.62;100.00
18900;BME280;9582;52.018;6.306;2022-10-26T01:12:20;101326.50;;;10.59;100.00
18900;BME280;9582;52.018;6.306;2022-10-26T01:14:47;101321.00;;;10.66;100.00
18900;BME280;9582;52.018;6.306;2022-10-26T01:17:24;101322.25;;;10.56;100.00
18900;BME280;9582;52.018;6.306;2022-10-26T01:20:23;101316.34;;;10.74;100.00
18900;BME280;9582;52.018;6.306;2022-10-26T01:22:56;101317.88;;;10.80;100.00
18900;BME280;9582;52.018;6.306;2022-10-26T01:25:40;101316.03;;;10.82;100.00
18900;BME280;9582;52.018;6.306;2022-10-26T01:28:20;101308.88;;;10.87;100.00
18900;BME280;9582;52.018;6.306;2022-10-26T01:30:57;101306.44;;;10.82;100.00
18900;BME280;9582;52.018;6.306;2022-10-26T01:33:31;101305.34;;;10.88;100.00
18900;BME280;9582;52.018;6.306;2022-10-26T01:36:06;101303.72;;;10.85;100.00
18900;BME280;9582;52.018;6.306;2022-10-26T01:38:42;101304.38;;;10.90;100.00
18900;BME280;9582;52.018;6.306;2022-10-26T01:41:16;101294.66;;;10.94;100.00
18900;BME280;9582;52.018;6.306;2022-10-26T01:43:49;101297.81;;;11.02;100.00
18900;BME280;9582;52.018;6.306;2022-10-26T01:46:20;101292.03;;;11.16;100.00
18900;BME280;9582;52.018;6.306;2022-10-26T01:48:49;101289.38;;;11.17;100.00
18900;BME280;9582;52.018;6.306;2022-10-26T01:51:18;101282.50;;;11.15;100.00
18900;BME280;9582;52.018;6.306;2022-10-26T01:53:45;101280.25;;;11.27;100.00
18900;BME280;9582;52.018;6.306;2022-10-26T01:56:17;101275.59;;;11.12;100.00
18900;BME280;9582;52.018;6.306;2022-10-26T01:59:06;101262.34;;;11.17;100.00
18900;BME280;9582;52.018;6.306;2022-10-26T02:02:11;101254.41;;;11.18;100.00
18900;BME280;9582;52.018;6.306;2022-10-26T02:04:52;101258.63;;;11.22;100.00
18900;BME280;9582;52.018;6.306;2022-10-26T02:07:28;101259.38;;;11.26;100.00
18900;BME280;9582;52.018;6.306;2022-10-26T02:09:59;101254.06;;;11.27;100.00
18900;BME280;9582;52.018;6.306;2022-10-26T02:12:37;101247.66;;;11.34;100.00
18900;BME280;9582;52.018;6.306;2022-10-26T02:15:13;101245.19;;;11.31;100.00
18900;BME280;9582;52.018;6.306;2022-10-26T02:17:49;101237.31;;;11.31;100.00
18900;BME280;9582;52.018;6.306;2022-10-26T02:20:20;101239.94;;;11.31;100.00
18900;BME280;9582;52.018;6.306;2022-10-26T02:22:49;101261.59;;;11.35;100.00
18900;BME280;9582;52.018;6.306;2022-10-26T02:25:21;101264.94;;;11.38;100.00
18900;BME280;9582;52.018;6.306;2022-10-26T02:27:51;101264.09;;;11.38;100.00
18900;BME280;9582;52.018;6.306;2022-10-26T02:30:20;101264.47;;;11.29;100.00
18900;BME280;9582;52.018;6.306;2022-10-26T02:32:50;101266.16;;;11.30;100.00
18900;BME280;9582;52.018;6.306;2022-10-26T02:35:21;101262.69;;;11.29;100.00
18900;BME280;9582;52.018;6.306;2022-10-26T02:37:50;101265.06;;;11.35;100.00
18900;BME280;9582;52.018;6.306;2022-10-26T02:40:21;101262.66;;;11.31;100.00
18900;BME280;9582;52.018;6.306;2022-10-26T02:42:50;101267.88;;;11.31;100.00
18900;BME280;9582;52.018;6.306;2022-10-26T02:45:20;101260.94;;;11.30;100.00
18900;BME280;9582;52.018;6.306;2022-10-26T02:47:50;101261.50;;;11.16;100.00
18900;BME280;9582;52.018;6.306;2022-10-26T02:50:18;101262.28;;;11.18;100.00
18900;BME280;9582;52.018;6.306;2022-10-26T02:52:51;101262.88;;;11.25;100.00
18900;BME280;9582;52.018;6.306;2022-10-26T02:55:22;101264.47;;;11.29;100.00
18900;BME280;9582;52.018;6.306;2022-10-26T02:57:53;101248.63;;;11.32;100.00
18900;BME280;9582;52.018;6.306;2022-10-26T03:00:22;101245.84;;;11.36;100.00
18900;BME280;9582;52.018;6.306;2022-10-26T03:02:53;101241.59;;;11.34;100.00
18900;BME280;9582;52.018;6.306;2022-10-26T03:05:23;101245.97;;;11.33;100.00
18900;BME280;9582;52.018;6.306;2022-10-26T03:07:51;101240.41;;;11.41;100.00
18900;BME280;9582;52.018;6.306;2022-10-26T03:10:18;101236.22;;;11.37;100.00
18900;BME280;9582;52.018;6.306;2022-10-26T03:12:45;101234.38;;;11.39;100.00
18900;BME280;9582;52.018;6.306;2022-10-26T03:15:11;101228.53;;;11.32;100.00
18900;BME280;9582;52.018;6.306;2022-10-26T03:17:38;101231.28;;;11.29;100.00
18900;BME280;9582;52.018;6.306;2022-10-26T03:20:07;101233.72;;;11.34;100.00
18900;BME280;9582;52.018;6.306;2022-10-26T03:22:34;101231.44;;;11.46;100.00
18900;BME280;9582;52.018;6.306;2022-10-26T03:25:01;101228.13;;;11.43;100.00
18900;BME280;9582;52.018;6.306;2022-10-26T03:27:27;101226.19;;;11.46;100.00
18900;BME280;9582;52.018;6.306;2022-10-26T03:29:54;101223.56;;;11.46;100.00
18900;BME280;9582;52.018;6.306;2022-10-26T03:32:22;101219.84;;;11.52;100.00
18900;BME280;9582;52.018;6.306;2022-10-26T03:34:48;101223.53;;;11.48;100.00
18900;BME280;9582;52.018;6.306;2022-10-26T03:37:16;101224.31;;;11.50;100.00
18900;BME280;9582;52.018;6.306;2022-10-26T03:39:43;101225.16;;;11.50;100.00
18900;BME280;9582;52.018;6.306;2022-10-26T03:42:10;101221.31;;;11.59;100.00
18900;BME280;9582;52.018;6.306;2022-10-26T03:44:36;101217.69;;;11.62;100.00
18900;BME280;9582;52.018;6.306;2022-10-26T03:47:03;101221.06;;;11.65;100.00
18900;BME280;9582;52.018;6.306;2022-10-26T03:49:29;101214.97;;;11.65;100.00
18900;BME280;9582;52.018;6.306;2022-10-26T03:51:55;101219.25;;;11.66;100.00
18900;BME280;9582;52.018;6.306;2022-10-26T03:54:23;101225.09;;;11.52;100.00
18900;BME280;9582;52.018;6.306;2022-10-26T03:56:50;101224.09;;;11.54;100.00
18900;BME280;9582;52.018;6.306;2022-10-26T03:59:17;101223.16;;;11.57;100.00
18900;BME280;9582;52.018;6.306;2022-10-26T04:01:43;101233.13;;;11.69;100.00
18900;BME280;9582;52.018;6.306;2022-10-26T04:04:10;101227.56;;;11.77;100.00
18900;BME280;9582;52.018;6.306;2022-10-26T04:06:36;101221.22;;;11.82;100.00
18900;BME280;9582;52.018;6.306;2022-10-26T04:09:03;101217.13;;;11.75;100.00
18900;BME280;9582;52.018;6.306;2022-10-26T04:11:33;101216.22;;;11.76;100.00
18900;BME280;9582;52.018;6.306;2022-10-26T04:14:00;101212.69;;;11.77;100.00
18900;BME280;9582;52.018;6.306;2022-10-26T04:16:26;101216.88;;;11.81;100.00
18900;BME280;9582;52.018;6.306;2022-10-26T04:18:53;101213.53;;;11.78;100.00
18900;BME280;9582;52.018;6.306;2022-10-26T04:21:19;101214.19;;;11.83;100.00
18900;BME280;9582;52.018;6.306;2022-10-26T04:23:46;101218.47;;;11.85;100.00
18900;BME280;9582;52.018;6.306;2022-10-26T04:26:12;101206.03;;;11.69;100.00
18900;BME280;9582;52.018;6.306;2022-10-26T04:28:40;101208.78;;;11.66;100.00
18900;BME280;9582;52.018;6.306;2022-10-26T04:31:07;101209.22;;;11.77;100.00
18900;BME280;9582;52.018;6.306;2022-10-26T04:33:33;101212.13;;;11.71;100.00
18900;BME280;9582;52.018;6.306;2022-10-26T04:36:00;101209.41;;;11.72;100.00
18900;BME280;9582;52.018;6.306;2022-10-26T04:38:27;101207.50;;;11.76;100.00
18900;BME280;9582;52.018;6.306;2022-10-26T04:40:53;101212.88;;;11.73;100.00
18900;BME280;9582;52.018;6.306;2022-10-26T04:43:20;101216.66;;;11.86;100.00
18900;BME280;9582;52.018;6.306;2022-10-26T04:45:48;101212.41;;;11.83;100.00
18900;BME280;9582;52.018;6.306;2022-10-26T04:48:14;101211.56;;;11.83;100.00
18900;BME280;9582;52.018;6.306;2022-10-26T04:50:40;101207.81;;;11.88;100.00
18900;BME280;9582;52.018;6.306;2022-10-26T04:53:08;101214.19;;;11.83;100.00
18900;BME280;9582;52.018;6.306;2022-10-26T04:55:35;101222.84;;;11.85;100.00
18900;BME280;9582;52.018;6.306;2022-10-26T04:58:02;101216.75;;;11.84;100.00
18900;BME280;9582;52.018;6.306;2022-10-26T05:00:29;101219.72;;;11.77;100.00
18900;BME280;9582;52.018;6.306;2022-10-26T05:03:02;101207.50;;;11.76;100.00
18900;BME280;9582;52.018;6.306;2022-10-26T05:05:32;101209.38;;;11.74;100.00
18900;BME280;9582;52.018;6.306;2022-10-26T05:07:59;101215.59;;;11.71;100.00
18900;BME280;9582;52.018;6.306;2022-10-26T05:10:26;101204.75;;;11.58;100.00
18900;BME280;9582;52.018;6.306;2022-10-26T05:12:54;101207.34;;;11.58;100.00
18900;BME280;9582;52.018;6.306;2022-10-26T05:15:21;101209.19;;;11.56;100.00
18900;BME280;9582;52.018;6.306;2022-10-26T05:17:54;101206.59;;;11.56;100.00
18900;BME280;9582;52.018;6.306;2022-10-26T05:20:22;101200.88;;;11.47;100.00
18900;BME280;9582;52.018;6.306;2022-10-26T05:22:53;101206.50;;;11.58;100.00
18900;BME280;9582;52.018;6.306;2022-10-26T05:25:20;101206.44;;;11.59;100.00
18900;BME280;9582;52.018;6.306;2022-10-26T05:27:47;101207.34;;;11.58;100.00
18900;BME280;9582;52.018;6.306;2022-10-26T05:30:13;101199.50;;;11.58;100.00
18900;BME280;9582;52.018;6.306;2022-10-26T05:32:40;101198.66;;;11.58;100.00
18900;BME280;9582;52.018;6.306;2022-10-26T05:35:07;101199.84;;;11.51;100.00
18900;BME280;9582;52.018;6.306;2022-10-26T05:37:34;101189.94;;;11.57;100.00
18900;BME280;9582;52.018;6.306;2022-10-26T05:40:01;101202.44;;;11.51;100.00
18900;BME280;9582;52.018;6.306;2022-10-26T05:42:28;101202.25;;;11.55;100.00
18900;BME280;9582;52.018;6.306;2022-10-26T05:44:55;101197.91;;;11.54;100.00
18900;BME280;9582;52.018;6.306;2022-10-26T05:47:21;101205.34;;;11.65;100.00
18900;BME280;9582;52.018;6.306;2022-10-26T05:49:47;101201.69;;;11.69;100.00
18900;BME280;9582;52.018;6.306;2022-10-26T05:52:14;101209.50;;;11.71;100.00
18900;BME280;9582;52.018;6.306;2022-10-26T05:54:42;101207.66;;;11.73;100.00
18900;BME280;9582;52.018;6.306;2022-10-26T05:57:10;101205.75;;;11.76;100.00
18900;BME280;9582;52.018;6.306;2022-10-26T05:59:37;101205.53;;;11.81;100.00
18900;BME280;9582;52.018;6.306;2022-10-26T06:02:10;101203.00;;;11.79;100.00
18900;BME280;9582;52.018;6.306;2022-10-26T06:04:43;101220.28;;;11.83;100.00
18900;BME280;9582;52.018;6.306;2022-10-26T06:07:14;101215.75;;;11.87;100.00
18900;BME280;9582;52.018;6.306;2022-10-26T06:09:43;101221.72;;;11.90;100.00
18900;BME280;9582;52.018;6.306;2022-10-26T06:12:11;101210.25;;;11.93;100.00
18900;BME280;9582;52.018;6.306;2022-10-26T06:14:38;101217.63;;;12.03;100.00
18900;BME280;9582;52.018;6.306;2022-10-26T06:17:26;101218.84;;;11.96;100.00
18900;BME280;9582;52.018;6.306;2022-10-26T06:20:16;101209.91;;;12.00;100.00
18900;BME280;9582;52.018;6.306;2022-10-26T06:22:55;101210.28;;;12.11;100.00
18900;BME280;9582;52.018;6.306;2022-10-26T06:25:35;101211.28;;;12.09;100.00
18900;BME280;9582;52.018;6.306;2022-10-26T06:28:18;101217.28;;;12.11;100.00
18900;BME280;9582;52.018;6.306;2022-10-26T06:30:48;101217.41;;;12.08;100.00
18900;BME280;9582;52.018;6.306;2022-10-26T06:33:15;101227.22;;;12.23;100.00
18900;BME280;9582;52.018;6.306;2022-10-26T06:35:47;101224.97;;;12.34;100.00
18900;BME280;9582;52.018;6.306;2022-10-26T06:38:18;101229.16;;;12.38;100.00
18900;BME280;9582;52.018;6.306;2022-10-26T06:40:50;101226.31;;;12.24;100.00
18900;BME280;9582;52.018;6.306;2022-10-26T06:43:23;101232.28;;;12.46;100.00
18900;BME280;9582;52.018;6.306;2022-10-26T06:45:55;101232.16;;;12.49;100.00
18900;BME280;9582;52.018;6.306;2022-10-26T06:48:33;101237.41;;;12.49;100.00
18900;BME280;9582;52.018;6.306;2022-10-26T06:51:00;101233.69;;;12.53;100.00
18900;BME280;9582;52.018;6.306;2022-10-26T06:53:30;101243.00;;;12.60;100.00
18900;BME280;9582;52.018;6.306;2022-10-26T06:56:00;101238.38;;;12.65;100.00
18900;BME280;9582;52.018;6.306;2022-10-26T06:58:29;101240.63;;;12.73;100.00
18900;BME280;9582;52.018;6.306;2022-10-26T07:00:58;101236.97;;;12.77;100.00
18900;BME280;9582;52.018;6.306;2022-10-26T07:03:24;101236.09;;;12.77;100.00
18900;BME280;9582;52.018;6.306;2022-10-26T07:05:51;101236.44;;;12.88;100.00
18900;BME280;9582;52.018;6.306;2022-10-26T07:08:18;101227.94;;;12.83;100.00
18900;BME280;9582;52.018;6.306;2022-10-26T07:10:45;101226.94;;;13.04;100.00
18900;BME280;9582;52.018;6.306;2022-10-26T07:13:13;101219.06;;;13.04;100.00
18900;BME280;9582;52.018;6.306;2022-10-26T07:15:40;101225.44;;;13.17;100.00
18900;BME280;9582;52.018;6.306;2022-10-26T07:18:08;101224.34;;;13.21;100.00
18900;BME280;9582;52.018;6.306;2022-10-26T07:20:36;101219.03;;;13.22;100.00
18900;BME280;9582;52.018;6.306;2022-10-26T07:23:03;101220.56;;;13.26;100.00
18900;BME280;9582;52.018;6.306;2022-10-26T07:25:32;101214.00;;;13.35;100.00
18900;BME280;9582;52.018;6.306;2022-10-26T07:28:00;101216.56;;;13.37;100.00
18900;BME280;9582;52.018;6.306;2022-10-26T07:30:29;101222.44;;;13.42;100.00
18900;BME280;9582;52.018;6.306;2022-10-26T07:32:59;101219.91;;;13.40;100.00
18900;BME280;9582;52.018;6.306;2022-10-26T07:35:26;101231.03;;;13.45;100.00
18900;BME280;9582;52.018;6.306;2022-10-26T07:37:56;101226.38;;;13.50;100.00
18900;BME280;9582;52.018;6.306;2022-10-26T07:40:23;101224.66;;;13.49;100.00
18900;BME280;9582;52.018;6.306;2022-10-26T07:42:50;101216.19;;;13.61;100.00
18900;BME280;9582;52.018;6.306;2022-10-26T07:45:17;101215.09;;;13.65;100.00
18900;BME280;9582;52.018;6.306;2022-10-26T07:47:45;101219.50;;;13.82;100.00
18900;BME280;9582;52.018;6.306;2022-10-26T07:50:12;101214.53;;;13.93;100.00
18900;BME280;9582;52.018;6.306;2022-10-26T07:52:38;101217.03;;;14.12;100.00
18900;BME280;9582;52.018;6.306;2022-10-26T07:55:07;101218.91;;;14.10;100.00
18900;BME280;9582;52.018;6.306;2022-10-26T07:57:33;101218.63;;;14.14;100.00
18900;BME280;9582;52.018;6.306;2022-10-26T08:00:00;101240.81;;;14.26;100.00
18900;BME280;9582;52.018;6.306;2022-10-26T08:02:29;101236.50;;;14.25;100.00
18900;BME280;9582;52.018;6.306;2022-10-26T08:04:57;101228.97;;;14.34;100.00
18900;BME280;9582;52.018;6.306;2022-10-26T08:07:24;101233.22;;;14.37;100.00
18900;BME280;9582;52.018;6.306;2022-10-26T08:09:51;101238.16;;;14.43;100.00
18900;BME280;9582;52.018;6.306;2022-10-26T08:12:18;101245.47;;;14.38;100.00
18900;BME280;9582;52.018;6.306;2022-10-26T08:14:44;101250.56;;;14.41;100.00
18900;BME280;9582;52.018;6.306;2022-10-26T08:17:11;101252.59;;;14.52;100.00
18900;BME280;9582;52.018;6.306;2022-10-26T08:19:38;101260.19;;;14.58;100.00
18900;BME280;9582;52.018;6.306;2022-10-26T08:22:06;101261.34;;;14.52;100.00
18900;BME280;9582;52.018;6.306;2022-10-26T08:24:32;101257.63;;;14.56;100.00
18900;BME280;9582;52.018;6.306;2022-10-26T08:26:58;101257.44;;;14.59;100.00
18900;BME280;9582;52.018;6.306;2022-10-26T08:29:25;101263.50;;;14.77;100.00
18900;BME280;9582;52.018;6.306;2022-10-26T08:31:52;101264.00;;;14.68;100.00
18900;BME280;9582;52.018;6.306;2022-10-26T08:34:18;101266.22;;;14.75;100.00
18900;BME280;9582;52.018;6.306;2022-10-26T08:36:45;101269.78;;;14.74;100.00
18900;BME280;9582;52.018;6.306;2022-10-26T08:39:14;101271.00;;;14.84;100.00
18900;BME280;9582;52.018;6.306;2022-10-26T08:41:42;101290.00;;;14.89;100.00
18900;BME280;9582;52.018;6.306;2022-10-26T08:44:19;101290.84;;;15.06;100.00
18900;BME280;9582;52.018;6.306;2022-10-26T08:46:50;101287.78;;;15.13;100.00
18900;BME280;9582;52.018;6.306;2022-10-26T08:49:21;101275.72;;;15.09;100.00
18900;BME280;9582;52.018;6.306;2022-10-26T08:51:52;101275.88;;;15.22;100.00
18900;BME280;9582;52.018;6.306;2022-10-26T08:54:31;101276.03;;;15.34;100.00
18900;BME280;9582;52.018;6.306;2022-10-26T08:57:01;101280.38;;;15.51;100.00
18900;BME280;9582;52.018;6.306;2022-10-26T08:59:34;101284.78;;;15.66;100.00
18900;BME280;9582;52.018;6.306;2022-10-26T09:02:10;101297.56;;;15.72;100.00
18900;BME280;9582;52.018;6.306;2022-10-26T09:04:38;101292.78;;;15.79;100.00
18900;BME280;9582;52.018;6.306;2022-10-26T09:07:09;101278.97;;;15.89;100.00
18900;BME280;9582;52.018;6.306;2022-10-26T09:09:45;101277.97;;;16.06;100.00
18900;BME280;9582;52.018;6.306;2022-10-26T09:12:17;101274.31;;;16.08;100.00
18900;BME280;9582;52.018;6.306;2022-10-26T09:14:56;101290.16;;;16.23;100.00
18900;BME280;9582;52.018;6.306;2022-10-26T09:17:36;101289.75;;;16.29;100.00
18900;BME280;9582;52.018;6.306;2022-10-26T09:20:34;101295.81;;;16.31;100.00
18900;BME280;9582;52.018;6.306;2022-10-26T09:23:12;101285.53;;;16.40;100.00
18900;BME280;9582;52.018;6.306;2022-10-26T09:25:48;101290.72;;;16.42;100.00
18900;BME280;9582;52.018;6.306;2022-10-26T09:28:19;101295.56;;;16.63;100.00
18900;BME280;9582;52.018;6.306;2022-10-26T09:30:47;101299.53;;;16.70;100.00
18900;BME280;9582;52.018;6.306;2022-10-26T09:33:15;101306.84;;;16.80;100.00
18900;BME280;9582;52.018;6.306;2022-10-26T09:35:45;101301.19;;;16.86;100.00
18900;BME280;9582;52.018;6.306;2022-10-26T09:38:20;101306.19;;;16.90;100.00
18900;BME280;9582;52.018;6.306;2022-10-26T09:40:54;101312.09;;;16.94;100.00
18900;BME280;9582;52.018;6.306;2022-10-26T09:43:27;101306.44;;;17.00;100.00
18900;BME280;9582;52.018;6.306;2022-10-26T09:45:55;101304.94;;;16.96;100.00
18900;BME280;9582;52.018;6.306;2022-10-26T09:48:28;101311.34;;;17.06;100.00
18900;BME280;9582;52.018;6.306;2022-10-26T09:50:57;101315.03;;;17.03;100.00
18900;BME280;9582;52.018;6.306;2022-10-26T09:53:24;101313.59;;;17.12;100.00
18900;BME280;9582;52.018;6.306;2022-10-26T09:55:58;101321.78;;;17.21;100.00
18900;BME280;9582;52.018;6.306;2022-10-26T09:58:28;101319.97;;;17.22;100.00
18900;BME280;9582;52.018;6.306;2022-10-26T10:00:55;101310.25;;;17.22;100.00
18900;BME280;9582;52.018;6.306;2022-10-26T10:03:25;101314.44;;;17.39;100.00
18900;BME280;9582;52.018;6.306;2022-10-26T10:05:53;101310.16;;;17.51;100.00
18900;BME280;9582;52.018;6.306;2022-10-26T10:08:38;101315.53;;;17.63;100.00
18900;BME280;9582;52.018;6.306;2022-10-26T10:11:08;101315.22;;;17.68;100.00
18900;BME280;9582;52.018;6.306;2022-10-26T10:13:37;101311.44;;;17.72;100.00
18900;BME280;9582;52.018;6.306;2022-10-26T10:16:07;101319.50;;;17.83;100.00
18900;BME280;9582;52.018;6.306;2022-10-26T10:18:36;101325.63;;;17.83;100.00
18900;BME280;9582;52.018;6.306;2022-10-26T10:21:04;101330.28;;;17.93;100.00
18900;BME280;9582;52.018;6.306;2022-10-26T10:23:33;101324.50;;;18.00;100.00
18900;BME280;9582;52.018;6.306;2022-10-26T10:26:07;101330.13;;;18.08;100.00
18900;BME280;9582;52.018;6.306;2022-10-26T10:28:35;101329.59;;;18.16;100.00
18900;BME280;9582;52.018;6.306;2022-10-26T10:31:03;101335.41;;;18.21;100.00
18900;BME280;9582;52.018;6.306;2022-10-26T10:33:38;101330.75;;;18.24;100.00
18900;BME280;9582;52.018;6.306;2022-10-26T10:36:08;101330.44;;;18.16;100.00
18900;BME280;9582;52.018;6.306;2022-10-26T10:38:40;101345.59;;;18.14;100.00
18900;BME280;9582;52.018;6.306;2022-10-26T10:41:16;101348.97;;;18.16;100.00
18900;BME280;9582;52.018;6.306;2022-10-26T10:43:46;101371.53;;;18.22;100.00
18900;BME280;9582;52.018;6.306;2022-10-26T10:46:18;101367.41;;;18.30;100.00
18900;BME280;9582;52.018;6.306;2022-10-26T10:48:47;101374.41;;;18.31;100.00
18900;BME280;9582;52.018;6.306;2022-10-26T10:51:18;101373.22;;;18.35;100.00
18900;BME280;9582;52.018;6.306;2022-10-26T10:53:47;101375.22;;;18.32;100.00
18900;BME280;9582;52.018;6.306;2022-10-26T10:56:28;101378.53;;;18.35;100.00
18900;BME280;9582;52.018;6.306;2022-10-26T10:59:08;101378.44;;;18.37;100.00
18900;BME280;9582;52.018;6.306;2022-10-26T11:01:39;101376.84;;;18.34;100.00
18900;BME280;9582;52.018;6.306;2022-10-26T11:04:24;101368.66;;;18.37;100.00
18900;BME280;9582;52.018;6.306;2022-10-26T11:06:58;101374.31;;;18.45;100.00
18900;BME280;9582;52.018;6.306;2022-10-26T11:09:28;101379.97;;;18.54;100.00
18900;BME280;9582;52.018;6.306;2022-10-26T11:12:01;101380.16;;;18.51;100.00
18900;BME280;9582;52.018;6.306;2022-10-26T11:14:31;101375.13;;;18.46;100.00
18900;BME280;9582;52.018;6.306;2022-10-26T11:17:05;101384.72;;;18.49;100.00
18900;BME280;9582;52.018;6.306;2022-10-26T11:19:36;101386.69;;;18.45;100.00
18900;BME280;9582;52.018;6.306;2022-10-26T11:22:12;101384.06;;;18.45;100.00
18900;BME280;9582;52.018;6.306;2022-10-26T11:24:42;101388.59;;;18.43;100.00
18900;BME280;9582;52.018;6.306;2022-10-26T11:27:14;101389.22;;;18.46;100.00
18900;BME280;9582;52.018;6.306;2022-10-26T11:29:47;101391.50;;;18.65;100.00
18900;BME280;9582;52.018;6.306;2022-10-26T11:32:20;101399.88;;;18.72;100.00
18900;BME280;9582;52.018;6.306;2022-10-26T11:34:51;101406.13;;;18.71;100.00
18900;BME280;9582;52.018;6.306;2022-10-26T11:37:23;101410.66;;;18.69;100.00
18900;BME280;9582;52.018;6.306;2022-10-26T11:40:00;101413.53;;;18.78;100.00
18900;BME280;9582;52.018;6.306;2022-10-26T11:42:31;101403.38;;;18.85;100.00
18900;BME280;9582;52.018;6.306;2022-10-26T11:45:03;101401.13;;;19.04;100.00
18900;BME280;9582;52.018;6.306;2022-10-26T11:47:39;101403.25;;;18.99;100.00
18900;BME280;9582;52.018;6.306;2022-10-26T11:50:14;101413.84;;;18.99;100.00
18900;BME280;9582;52.018;6.306;2022-10-26T11:52:44;101414.28;;;18.93;100.00
18900;BME280;9582;52.018;6.306;2022-10-26T11:55:12;101412.16;;;19.11;100.00
18900;BME280;9582;52.018;6.306;2022-10-26T11:57:40;101414.34;;;19.17;100.00
18900;BME280;9582;52.018;6.306;2022-10-26T12:00:14;101410.09;;;19.14;100.00
18900;BME280;9582;52.018;6.306;2022-10-26T12:02:42;101405.72;;;19.26;100.00
18900;BME280;9582;52.018;6.306;2022-10-26T12:05:19;101406.59;;;19.26;100.00
18900;BME280;9582;52.018;6.306;2022-10-26T12:07:48;101402.78;;;19.30;100.00
18900;BME280;9582;52.018;6.306;2022-10-26T12:10:28;101409.25;;;19.26;100.00
18900;BME280;9582;52.018;6.306;2022-10-26T12:13:07;101419.28;;;19.34;100.00
18900;BME280;9582;52.018;6.306;2022-10-26T12:15:39;101421.22;;;19.32;100.00
18900;BME280;9582;52.018;6.306;2022-10-26T12:18:13;101428.22;;;19.33;100.00
18900;BME280;9582;52.018;6.306;2022-10-26T12:20:56;101430.97;;;19.31;100.00
18900;BME280;9582;52.018;6.306;2022-10-26T12:23:27;101436.38;;;19.42;100.00
18900;BME280;9582;52.018;6.306;2022-10-26T12:29:27;101451.06;;;19.59;100.00
18900;BME280;9582;52.018;6.306;2022-10-26T12:31:54;101451.13;;;19.46;100.00
18900;BME280;9582;52.018;6.306;2022-10-26T12:34:23;101462.91;;;19.42;100.00
18900;BME280;9582;52.018;6.306;2022-10-26T12:37:10;101456.31;;;19.48;100.00
18900;BME280;9582;52.018;6.306;2022-10-26T12:39:47;101451.84;;;19.48;100.00
18900;BME280;9582;52.018;6.306;2022-10-26T12:42:27;101453.56;;;19.49;100.00
18900;BME280;9582;52.018;6.306;2022-10-26T12:45:14;101444.19;;;19.56;100.00
18900;BME280;9582;52.018;6.306;2022-10-26T12:48:02;101446.59;;;19.72;100.00
18900;BME280;9582;52.018;6.306;2022-10-26T12:50:29;101457.72;;;19.77;100.00
18900;BME280;9582;52.018;6.306;2022-10-26T12:52:57;101460.72;;;19.73;100.00
18900;BME280;9582;52.018;6.306;2022-10-26T12:55:46;101457.28;;;19.83;100.00
18900;BME280;9582;52.018;6.306;2022-10-26T12:58:32;101451.03;;;19.72;100.00
18900;BME280;9582;52.018;6.306;2022-10-26T13:01:26;101454.22;;;19.77;100.00
18900;BME280;9582;52.018;6.306;2022-10-26T13:04:06;101464.88;;;19.88;100.00
18900;BME280;9582;52.018;6.306;2022-10-26T13:06:51;101460.38;;;20.01;100.00
18900;BME280;9582;52.018;6.306;2022-10-26T13:09:23;101462.78;;;20.04;100.00
18900;BME280;9582;52.018;6.306;2022-10-26T13:11:54;101462.56;;;20.07;100.00